.
WxDataArchive / Data Records for 2009-09-03
2009-09-02 September 2009 2009-09-04

Data Records for Thursday, 03 September 2009

Time	Temp	Chill	HIndex	Humid	Dewpt	 Wind 	HiWind	WindDir	Rain 	Barom 
-----	----	-----	------	-----	-----	------	------	-------	-----	----- 
00:00	58.4	58.4	58.4	85	53.9	0	0	---	0.00	30.189 
00:05	58.1	58.1	58.1	86	53.9	0	0	---	0.00	30.189 
00:10	57.8	57.8	57.8	86	53.6	0	0	---	0.00	30.189 
00:15	57.6	57.6	57.6	87	53.8	0	0	---	0.00	30.187 
00:20	57.3	57.3	57.3	88	53.8	0	0	---	0.00	30.187 
00:25	57.0	57.0	57.0	88	53.5	0	0	---	0.00	30.187 
00:30	56.9	56.9	56.9	89	53.7	0	0	---	0.00	30.189 
00:35	56.7	56.7	56.7	89	53.5	0	0	---	0.00	30.189 
00:40	56.6	56.6	56.6	90	53.7	0	0	---	0.00	30.189 
00:45	56.6	56.6	56.6	90	53.7	0	0	---	0.00	30.190 
00:50	56.5	56.5	56.5	90	53.6	0	0	---	0.00	30.190 
00:55	56.2	56.2	56.2	91	53.6	0	0	---	0.00	30.190 
01:00	56.0	56.0	56.0	91	53.4	0	0	---	0.00	30.190 
01:05	55.9	55.9	55.9	91	53.3	0	0	---	0.00	30.190 
01:10	55.7	55.7	55.7	92	53.4	0	0	---	0.00	30.190 
01:15	55.6	55.6	55.6	92	53.3	0	0	---	0.00	30.187 
01:20	55.3	55.3	55.3	92	53.0	0	0	---	0.00	30.187 
01:25	55.1	55.1	55.1	92	52.8	0	0	---	0.00	30.187 
01:30	55.0	55.0	55.0	92	52.7	0	0	---	0.00	30.187 
01:35	54.8	54.8	54.8	92	52.5	0	0	---	0.00	30.187 
01:40	54.7	54.7	54.7	92	52.4	0	0	---	0.00	30.187 
01:45	54.5	54.5	54.5	92	52.2	0	0	---	0.00	30.187 
01:50	54.5	54.5	54.5	92	52.2	0	0	---	0.00	30.187 
01:55	54.4	54.4	54.4	93	52.4	0	0	---	0.00	30.187 
02:00	54.2	54.2	54.2	93	52.2	0	0	---	0.00	30.188 
02:05	54.1	54.1	54.1	93	52.1	0	0	---	0.00	30.188 
02:10	53.9	53.9	53.9	93	51.9	0	0	---	0.00	30.188 
02:15	53.8	53.8	53.8	93	51.8	0	0	---	0.00	30.186 
02:20	53.6	53.6	53.6	93	51.6	0	0	---	0.00	30.186 
02:25	53.6	53.6	53.6	93	51.6	0	0	---	0.00	30.186 
02:30	53.5	53.5	53.5	93	51.5	0	0	---	0.00	30.185 
02:35	53.3	53.3	53.3	93	51.3	0	0	---	0.00	30.185 
02:40	53.2	53.2	53.2	94	51.5	0	0	---	0.00	30.185 
02:45	53.2	53.2	53.2	94	51.5	0	0	---	0.00	30.186 
02:50	53.1	53.1	53.1	94	51.4	0	0	---	0.00	30.186 
02:55	52.9	52.9	52.9	94	51.2	0	0	---	0.00	30.186 
03:00	52.8	52.8	52.8	94	51.1	0	0	---	0.00	30.182 
03:05	52.8	52.8	52.8	94	51.1	0	0	---	0.00	30.182 
03:10	52.8	52.8	52.8	94	51.1	0	0	---	0.00	30.182 
03:15	52.8	52.8	52.8	94	51.1	0	0	---	0.00	30.175 
03:20	52.8	52.8	52.8	94	51.1	0	0	---	0.00	30.175 
03:25	52.8	52.8	52.8	94	51.1	0	0	---	0.00	30.175 
03:30	52.6	52.6	52.6	94	50.9	0	0	---	0.00	30.173 
03:35	52.6	52.6	52.6	95	51.2	0	0	---	0.00	30.173 
03:40	52.6	52.6	52.6	95	51.2	0	0	---	0.00	30.173 
03:45	52.6	52.6	52.6	95	51.2	0	0	---	0.00	30.173 
03:50	52.6	52.6	52.6	95	51.2	0	0	---	0.00	30.173 
03:55	52.6	52.6	52.6	95	51.2	0	0	---	0.00	30.173 
04:00	52.5	52.5	52.5	95	51.1	0	0	---	0.00	30.171 
04:05	52.5	52.5	52.5	95	51.1	0	0	---	0.00	30.171 
04:10	52.5	52.5	52.5	95	51.1	0	0	---	0.00	30.171 
04:15	52.5	52.5	52.5	95	51.1	0	0	---	0.00	30.171 
04:20	52.5	52.5	52.5	95	51.1	0	0	---	0.00	30.171 
04:25	52.5	52.5	52.5	95	51.1	0	0	---	0.00	30.171 
04:30	52.3	52.3	52.3	95	50.9	0	0	---	0.00	30.173 
04:35	52.2	52.2	52.2	95	50.8	0	0	---	0.00	30.173 
04:40	52.2	52.2	52.2	95	50.8	0	0	---	0.00	30.173 
04:45	52.0	52.0	52.0	95	50.6	0	0	---	0.00	30.173 
04:50	52.0	52.0	52.0	95	50.6	0	0	---	0.00	30.173 
04:55	51.9	51.9	51.9	95	50.5	0	0	---	0.00	30.173 
05:00	51.9	51.9	51.9	95	50.5	0	0	---	0.00	30.174 
05:05	51.9	51.9	51.9	96	50.8	0	0	---	0.00	30.174 
05:10	51.9	51.9	51.9	96	50.8	0	0	---	0.00	30.174 
05:15	51.7	51.7	51.7	96	50.6	0	0	---	0.00	30.176 
05:20	51.6	51.6	51.6	96	50.5	0	0	---	0.00	30.176 
05:25	51.6	51.6	51.6	96	50.5	0	0	---	0.00	30.176 
05:30	51.6	51.6	51.6	96	50.5	0	0	---	0.00	30.174 
05:35	51.6	51.6	51.6	96	50.5	0	0	---	0.00	30.174 
05:40	51.6	51.6	51.6	96	50.5	0	0	---	0.00	30.174 
05:45	51.6	51.6	51.6	96	50.5	0	0	---	0.00	30.172 
05:50	51.6	51.6	51.6	96	50.5	0	0	---	0.00	30.172 
05:55	51.6	51.6	51.6	96	50.5	0	0	---	0.00	30.172 
06:00	51.7	51.7	51.7	96	50.6	0	0	---	0.00	30.173 
06:05	51.9	51.9	51.9	96	50.8	0	0	---	0.00	30.173 
06:10	52.0	52.0	52.0	96	50.9	0	0	---	0.00	30.173 
06:15	52.0	52.0	52.0	96	50.9	0	0	---	0.00	30.175 
06:20	52.0	52.0	52.0	96	50.9	0	0	---	0.00	30.175 
06:25	52.0	52.0	52.0	96	50.9	0	0	---	0.00	30.175 
06:30	52.0	52.0	52.0	96	50.9	0	0	---	0.00	30.175 
06:35	52.0	52.0	52.0	96	50.9	0	0	---	0.00	30.175 
06:40	51.9	51.9	51.9	96	50.8	0	0	---	0.00	30.175 
06:45	51.9	51.9	51.9	96	50.8	0	0	---	0.00	30.177 
06:50	51.9	51.9	51.9	96	50.8	0	0	---	0.00	30.177 
06:55	52.0	52.0	52.0	96	50.9	0	0	---	0.00	30.177 
07:00	52.0	52.0	52.0	96	50.9	0	0	---	0.00	30.180 
07:05	52.0	52.0	52.0	96	50.9	0	0	---	0.00	30.180 
07:10	51.9	51.9	51.9	96	50.8	0	0	---	0.00	30.180 
07:15	51.9	51.9	51.9	96	50.8	0	0	---	0.00	30.188 
07:20	51.9	51.9	51.9	96	50.8	0	0	---	0.00	30.188 
07:25	51.7	51.7	51.7	96	50.6	0	0	---	0.00	30.188 
07:30	51.7	51.7	51.7	96	50.6	0	0	---	0.00	30.190 
07:35	51.7	51.7	51.7	96	50.6	0	0	---	0.00	30.190 
07:40	51.9	51.9	51.9	96	50.8	0	0	---	0.00	30.190 
07:45	52.0	52.0	52.0	96	50.9	0	0	---	0.00	30.191 
07:50	52.2	52.2	52.2	96	51.1	0	0	---	0.00	30.191 
07:55	52.6	52.6	52.6	97	51.8	0	0	---	0.00	30.191 
08:00	52.9	52.9	52.9	97	52.1	0	0	---	0.00	30.188 
08:05	53.5	53.5	53.5	97	52.7	0	0	---	0.00	30.188 
08:10	54.2	54.2	54.2	97	53.4	0	1	135	0.00	30.188 
08:15	55.0	55.0	55.0	97	54.2	0	1	135	0.00	30.191 
08:20	55.7	55.7	55.7	97	54.9	0	0	---	0.00	30.191 
08:25	56.0	56.0	56.0	97	55.2	0	0	---	0.00	30.191 
08:30	56.3	56.3	56.3	97	55.5	0	1	135	0.00	30.193 
08:35	56.5	56.5	56.5	97	55.7	1	3	135	0.00	30.193 
08:40	56.6	56.6	56.6	97	55.8	1	4	112	0.00	30.193 
08:45	56.7	56.7	56.7	96	55.6	0	3	112	0.00	30.190 
08:50	56.9	56.9	56.9	96	55.8	2	5	112	0.00	30.190 
08:55	57.0	57.0	57.0	96	55.9	1	4	112	0.00	30.190 
09:00	57.5	57.5	57.5	96	56.4	0	2	112	0.00	30.190 
09:05	58.0	58.0	58.0	95	56.6	0	2	112	0.00	30.190 
09:10	58.1	58.1	58.1	94	56.4	2	5	112	0.00	30.190 
09:15	58.6	58.6	58.6	94	56.9	0	4	112	0.00	30.193 
09:20	59.2	59.2	59.2	94	57.5	1	3	112	0.00	30.193 
09:25	59.5	59.5	59.5	92	57.2	1	3	112	0.00	30.193 
09:30	59.8	59.8	59.8	91	57.2	1	3	112	0.00	30.191 
09:35	60.1	60.1	60.1	91	57.5	1	4	90	0.00	30.191 
09:40	60.5	60.5	60.5	90	57.5	0	2	90	0.00	30.191 
09:45	61.0	61.0	61.0	89	57.7	1	3	90	0.00	30.188 
09:50	61.3	61.3	61.3	88	57.7	1	3	112	0.00	30.188 
09:55	61.6	61.6	61.6	88	58.0	1	3	112	0.00	30.188 
10:00	62.1	62.1	62.1	87	58.2	0	2	112	0.00	30.188 
10:05	62.6	62.6	62.6	86	58.3	1	2	112	0.00	30.188 
10:10	63.2	63.2	63.2	83	57.9	1	3	112	0.00	30.188 
10:15	64.2	64.2	64.2	81	58.2	0	2	112	0.00	30.187 
10:20	65.3	65.3	65.3	79	58.6	0	2	112	0.00	30.187 
10:25	66.1	66.1	66.1	76	58.3	1	3	112	0.00	30.187 
10:30	66.8	66.8	66.8	74	58.2	0	2	112	0.00	30.185 
10:35	67.4	67.4	67.4	72	58.1	0	3	112	0.00	30.185 
10:40	68.1	68.1	68.1	72	58.7	1	4	68	0.00	30.185 
10:45	68.4	68.4	68.4	70	58.2	0	2	68	0.00	30.184 
10:50	68.9	68.9	68.9	70	58.7	1	3	68	0.00	30.184 
10:55	69.1	69.1	69.1	67	57.7	1	2	68	0.00	30.184 
11:00	69.3	69.3	69.3	69	58.7	2	4	68	0.00	30.183 
11:05	69.6	69.6	69.6	70	59.4	1	3	112	0.00	30.183 
11:10	70.3	70.3	70.3	69	59.6	1	3	112	0.00	30.183 
11:15	70.9	70.9	70.9	68	59.8	0	2	112	0.00	30.182 
11:20	71.1	71.1	71.1	63	57.9	2	5	112	0.00	30.182 
11:25	71.3	71.3	71.3	63	58.0	1	4	112	0.00	30.182 
11:30	71.1	71.1	71.1	60	56.5	2	4	90	0.00	30.183 
11:35	71.6	71.6	71.6	62	57.9	1	2	90	0.00	30.183 
11:40	72.0	72.0	72.0	59	56.9	1	4	90	0.00	30.183 
11:45	72.0	72.0	72.0	60	57.3	2	5	90	0.00	30.180 
11:50	72.3	72.3	72.3	59	57.2	1	4	90	0.00	30.180 
11:55	72.7	72.7	72.7	58	57.1	1	5	90	0.00	30.180 
12:00	73.3	73.3	73.3	55	56.1	1	4	90	0.00	30.175 
12:05	73.7	73.7	73.7	57	57.5	1	4	68	0.00	30.175 
12:10	74.0	74.0	74.0	54	56.3	1	3	158	0.00	30.175 
12:15	74.2	74.2	74.2	52	55.4	1	4	112	0.00	30.170 
12:20	74.2	74.2	74.2	54	56.5	2	5	90	0.00	30.170 
12:25	74.4	74.4	74.4	53	56.1	1	5	112	0.00	30.170 
12:30	74.4	74.4	74.4	55	57.2	2	4	90	0.00	30.169 
12:35	74.6	74.6	74.6	55	57.3	2	4	90	0.00	30.169 
12:40	74.7	74.7	74.7	49	54.3	2	6	90	0.00	30.169 
12:45	74.9	74.9	74.9	50	55.0	1	5	112	0.00	30.166 
12:50	74.7	74.7	74.7	49	54.3	2	4	90	0.00	30.166 
12:55	74.9	74.9	74.9	48	53.9	2	5	112	0.00	30.166 
13:00	75.4	75.4	77.8	51	56.0	1	4	68	0.00	30.162 
13:05	75.4	75.4	77.7	45	52.6	2	6	112	0.00	30.162 
13:10	75.3	75.3	77.7	46	53.1	2	5	112	0.00	30.162 
13:15	75.4	75.4	77.8	50	55.4	1	4	112	0.00	30.158 
13:20	75.8	75.8	78.0	48	54.7	1	5	90	0.00	30.158 
13:25	75.8	75.8	77.9	47	54.1	2	7	90	0.00	30.158 
13:30	75.8	75.8	77.9	46	53.5	2	6	90	0.00	30.154 
13:35	75.3	75.3	77.7	45	52.5	3	7	90	0.00	30.154 
13:40	75.3	75.3	77.7	47	53.7	2	5	112	0.00	30.154 
13:45	75.4	75.4	77.8	46	53.2	2	5	90	0.00	30.155 
13:50	75.6	75.6	77.9	47	53.9	1	5	68	0.00	30.155 
13:55	75.6	75.6	77.8	44	52.1	2	7	90	0.00	30.155 
14:00	75.8	75.8	78.0	48	54.7	1	6	90	0.00	30.151 
14:05	76.0	76.0	78.0	44	52.5	2	7	90	0.00	30.151 
14:10	75.6	75.6	77.8	44	52.1	1	4	112	0.00	30.151 
14:15	75.6	75.6	77.8	46	53.3	1	6	112	0.00	30.153 
14:20	75.8	75.8	77.8	43	51.7	2	5	90	0.00	30.153 
14:25	76.0	76.0	78.0	48	54.9	1	3	112	0.00	30.153 
14:30	76.1	76.1	78.0	45	53.2	2	4	112	0.00	30.150 
14:35	76.5	76.5	78.3	47	54.7	0	2	90	0.00	30.150 
14:40	76.8	76.8	78.4	46	54.4	1	3	68	0.00	30.150 
14:45	76.7	76.7	78.3	45	53.7	2	6	90	0.00	30.140 
14:50	76.5	76.5	78.3	47	54.7	1	4	112	0.00	30.140 
14:55	76.7	76.7	78.4	51	57.2	1	5	112	0.00	30.140 
15:00	76.3	76.3	78.1	45	53.4	2	5	112	0.00	30.138 
15:05	75.8	75.8	78.0	49	55.3	1	4	112	0.00	30.138 
15:10	76.0	76.0	78.1	50	56.0	0	4	112	0.00	30.138 
15:15	76.3	76.3	78.1	46	54.0	1	3	112	0.00	30.138 
15:20	76.7	76.7	78.3	46	54.3	1	3	45	0.00	30.138 
15:25	77.0	77.0	78.5	47	55.2	1	5	112	0.00	30.138 
15:30	77.0	77.0	78.5	47	55.2	1	3	90	0.00	30.133 
15:35	77.0	77.0	78.3	42	52.1	1	3	112	0.00	30.133 
15:40	77.2	77.2	78.5	43	52.9	0	3	112	0.00	30.133 
15:45	77.4	77.4	78.8	48	56.1	0	2	112	0.00	30.123 
15:50	77.4	77.4	78.8	48	56.1	1	3	112	0.00	30.123 
15:55	77.2	77.2	78.4	41	51.7	2	5	90	0.00	30.123 
16:00	76.8	76.8	78.3	43	52.6	1	4	112	0.00	30.121 
16:05	77.0	77.0	78.4	44	53.4	0	2	112	0.00	30.121 
16:10	77.4	77.4	78.6	45	54.4	0	2	112	0.00	30.121 
16:15	77.6	77.6	78.7	44	53.9	0	5	112	0.00	30.118 
16:20	77.2	77.2	78.4	42	52.3	2	5	90	0.00	30.118 
16:25	77.0	77.0	78.4	44	53.4	0	2	90	0.00	30.118 
16:30	77.0	77.0	78.3	42	52.1	0	1	90	0.00	30.113 
16:35	76.7	76.7	78.1	41	51.2	0	1	90	0.00	30.113 
16:40	76.7	76.7	78.1	41	51.2	1	4	112	0.00	30.113 
16:45	76.7	76.7	78.2	43	52.5	2	10	112	0.00	30.111 
16:50	76.5	76.5	78.3	47	54.7	2	4	112	0.00	30.111 
16:55	76.3	76.3	78.1	46	54.0	1	3	90	0.00	30.111 
17:00	75.8	75.8	77.9	44	52.3	1	3	90	0.00	30.111 
17:05	75.6	75.6	77.8	45	52.7	0	0	---	0.00	30.111 
17:10	75.3	75.3	77.7	50	55.4	0	1	90	0.00	30.111 
17:15	75.4	75.4	77.8	46	53.2	1	3	112	0.00	30.110 
17:20	75.8	75.8	77.9	47	54.1	2	6	90	0.00	30.110 
17:25	75.8	75.8	77.9	46	53.5	0	2	90	0.00	30.110 
17:30	75.6	75.6	77.8	46	53.3	0	0	---	0.00	30.108 
17:35	75.1	75.1	77.6	45	52.3	0	1	90	0.00	30.108 
17:40	75.1	75.1	77.7	46	52.9	0	1	90	0.00	30.108 
17:45	75.3	75.3	77.7	49	54.8	0	1	90	0.00	30.109 
17:50	75.4	75.4	77.8	48	54.3	1	3	90	0.00	30.109 
17:55	75.4	75.4	77.8	46	53.2	1	3	90	0.00	30.109 
18:00	75.4	75.4	77.8	47	53.7	0	3	112	0.00	30.108 
18:05	75.3	75.3	77.7	48	54.2	1	3	135	0.00	30.108 
18:10	75.1	75.1	77.7	46	52.9	1	3	112	0.00	30.108 
18:15	74.9	74.9	74.9	46	52.7	1	3	112	0.00	30.109 
18:20	74.6	74.6	74.6	49	54.2	0	3	112	0.00	30.109 
18:25	74.0	74.0	74.0	49	53.6	0	0	---	0.00	30.109 
18:30	73.9	73.9	73.9	49	53.5	0	2	112	0.00	30.107 
18:35	73.7	73.7	73.7	50	53.9	0	2	112	0.00	30.107 
18:40	73.7	73.7	73.7	50	53.9	0	1	112	0.00	30.107 
18:45	73.7	73.7	73.7	49	53.3	0	2	112	0.00	30.107 
18:50	73.7	73.7	73.7	49	53.3	0	2	112	0.00	30.107 
18:55	73.7	73.7	73.7	49	53.3	0	2	112	0.00	30.107 
19:00	73.5	73.5	73.5	49	53.2	0	2	112	0.00	30.108 
19:05	73.3	73.3	73.3	50	53.5	0	1	112	0.00	30.108 
19:10	73.2	73.2	73.2	50	53.4	0	2	112	0.00	30.108 
19:15	73.0	73.0	73.0	50	53.2	0	0	---	0.00	30.104 
19:20	72.7	72.7	72.7	50	53.0	0	0	---	0.00	30.104 
19:25	72.5	72.5	72.5	51	53.3	0	0	---	0.00	30.104 
19:30	72.3	72.3	72.3	52	53.7	0	0	---	0.00	30.103 
19:35	72.0	72.0	72.0	52	53.4	0	0	---	0.00	30.103 
19:40	71.8	71.8	71.8	53	53.7	0	0	---	0.00	30.103 
19:45	71.5	71.5	71.5	54	54.0	0	0	---	0.00	30.100 
19:50	71.1	71.1	71.1	55	54.1	0	0	---	0.00	30.100 
19:55	70.8	70.8	70.8	56	54.3	0	0	---	0.00	30.100 
20:00	70.4	70.4	70.4	57	54.4	0	0	---	0.00	30.098 
20:05	70.1	70.1	70.1	58	54.6	0	0	---	0.00	30.098 
20:10	69.6	69.6	69.6	59	54.6	0	0	---	0.00	30.098 
20:15	69.1	69.1	69.1	60	54.6	0	0	---	0.00	30.097 
20:20	68.6	68.6	68.6	62	55.0	0	0	---	0.00	30.097 
20:25	68.1	68.1	68.1	63	55.0	0	0	---	0.00	30.097 
20:30	67.4	67.4	67.4	65	55.2	0	0	---	0.00	30.098 
20:35	66.9	66.9	66.9	66	55.2	0	0	---	0.00	30.098 
20:40	66.4	66.4	66.4	68	55.5	0	0	---	0.00	30.098 
20:45	66.1	66.1	66.1	69	55.6	0	0	---	0.00	30.105 
20:50	65.6	65.6	65.6	70	55.5	0	0	---	0.00	30.105 
20:55	65.3	65.3	65.3	71	55.6	0	0	---	0.00	30.105 
21:00	65.0	65.0	65.0	72	55.7	0	0	---	0.00	30.109 
21:05	64.5	64.5	64.5	74	56.0	0	0	---	0.00	30.109 
21:10	64.2	64.2	64.2	75	56.1	0	0	---	0.00	30.109 
21:15	63.9	63.9	63.9	75	55.8	0	0	---	0.00	30.108 
21:20	63.7	63.7	63.7	76	56.0	0	0	---	0.00	30.108 
21:25	63.4	63.4	63.4	77	56.1	0	0	---	0.00	30.108 
21:30	63.1	63.1	63.1	77	55.8	0	0	---	0.00	30.112 
21:35	62.9	62.9	62.9	78	55.9	0	0	---	0.00	30.112 
21:40	62.6	62.6	62.6	79	56.0	0	0	---	0.00	30.112 
21:45	62.4	62.4	62.4	80	56.1	0	0	---	0.00	30.115 
21:50	62.1	62.1	62.1	80	55.9	0	0	---	0.00	30.115 
21:55	62.0	62.0	62.0	80	55.8	0	0	---	0.00	30.115 
22:00	61.8	61.8	61.8	81	55.9	0	0	---	0.00	30.119 
22:05	61.5	61.5	61.5	81	55.6	0	0	---	0.00	30.119 
22:10	61.3	61.3	61.3	81	55.4	0	0	---	0.00	30.119 
22:15	61.2	61.2	61.2	82	55.7	0	0	---	0.00	30.118 
22:20	61.0	61.0	61.0	83	55.8	0	0	---	0.00	30.118 
22:25	60.9	60.9	60.9	84	56.0	0	0	---	0.00	30.118 
22:30	60.7	60.7	60.7	84	55.8	0	0	---	0.00	30.119 
22:35	60.5	60.5	60.5	85	56.0	0	0	---	0.00	30.119 
22:40	60.4	60.4	60.4	85	55.9	0	0	---	0.00	30.119 
22:45	60.4	60.4	60.4	86	56.2	0	0	---	0.00	30.121 
22:50	60.2	60.2	60.2	86	56.0	0	0	---	0.00	30.121 
22:55	60.1	60.1	60.1	86	55.9	0	0	---	0.00	30.121 
23:00	59.9	59.9	59.9	87	56.0	0	0	---	0.00	30.120 
23:05	59.8	59.8	59.8	87	55.9	0	0	---	0.00	30.120 
23:10	59.6	59.6	59.6	87	55.7	0	0	---	0.00	30.120 
23:15	59.5	59.5	59.5	88	55.9	0	0	---	0.00	30.119 
23:20	59.3	59.3	59.3	88	55.7	0	0	---	0.00	30.119 
23:25	59.3	59.3	59.3	88	55.7	0	0	---	0.00	30.119 
23:30	59.2	59.2	59.2	88	55.6	0	0	---	0.00	30.118 
23:35	59.0	59.0	59.0	88	55.4	0	0	---	0.00	30.118 
23:40	58.9	58.9	58.9	89	55.7	0	0	---	0.00	30.118 
23:45	58.7	58.7	58.7	89	55.5	0	0	---	0.00	30.117 
23:50	58.6	58.6	58.6	89	55.4	0	0	---	0.00	30.117 
23:55	58.6	58.6	58.6	89	55.4	0	0	---	0.00	30.117 

CoCoRaHS
IN-AL-39
A2 Web Hosting
Creative Commons License
GoDaddy
search engine by freefind advanced

loaded 2018-11-13 17:03:34 • last modified 2010-11-18 10:43:29
Privacy PolicyDisclaimer
• wx.awcolley.com is powered by PmWiki v.2002016 •
• all content (unless otherwise noted) © 2018 A W Colley